Time;durP1;ratioP1;P1;durP2;ratioP2;P2;SDS_P1;SDS_P2;PMS_P1;PMS_P2;Temp;Humidity;BMP_temperature;BMP_pressure;BME280_temperature;BME280_humidity;BME280_pressure;Samples;Min_cycle;Max_cycle;Signal;HPM_P1;HPM_P2
2022/09/08 00:00:18;;;;;;;2.20;0.60;;;;;;;;;;7403021;19;19995;-79
2022/09/08 00:02:43;;;;;;;2.25;1.08;;;;;;;;;;7404602;19;20003;-77
2022/09/08 00:05:12;;;;;;;2.47;0.80;;;;;;;;;;7403294;19;20001;-78
2022/09/08 00:07:38;;;;;;;3.30;0.90;;;;;;;;;;7399455;19;20011;-78
2022/09/08 00:10:03;;;;;;;4.40;0.70;;;;;;;;;;7403276;19;20022;-79
2022/09/08 00:12:29;;;;;;;4.07;0.70;;;;;;;;;;7400373;19;20018;-79
2022/09/08 00:14:56;;;;;;;1.65;0.77;;;;;;;;;;7402747;19;20003;-79
2022/09/08 00:17:22;;;;;;;2.63;0.70;;;;;;;;;;7400633;19;20015;-80
2022/09/08 00:19:47;;;;;;;2.35;0.50;;;;;;;;;;7400591;19;20014;-79
2022/09/08 00:22:13;;;;;;;2.47;0.77;;;;;;;;;;7401911;19;20011;-78
2022/09/08 00:24:38;;;;;;;1.80;0.90;;;;;;;;;;7402253;19;20017;-79
2022/09/08 00:27:03;;;;;;;0.93;0.60;;;;;;;;;;7400786;19;20452;-80
2022/09/08 00:29:29;;;;;;;1.05;0.57;;;;;;;;;;7398141;19;20355;-79
2022/09/08 00:31:54;;;;;;;0.82;0.40;;;;;;;;;;7402188;19;20006;-78
2022/09/08 00:34:19;;;;;;;1.25;0.57;;;;;;;;;;7400870;19;20090;-80
2022/09/08 00:36:45;;;;;;;1.63;0.40;;;;;;;;;;7401408;19;20006;-78
2022/09/08 00:39:10;;;;;;;1.85;0.95;;;;;;;;;;7399462;19;20038;-79
2022/09/08 00:41:36;;;;;;;3.30;0.73;;;;;;;;;;7401155;19;20014;-79
2022/09/08 00:44:40;;;;;;;0.73;0.40;;;;;;;;;;7395495;19;20453;-78
2022/09/08 00:47:13;;;;;;;1.45;0.40;;;;;;;;;;7397478;19;20025;-78
2022/09/08 00:49:41;;;;;;;0.20;0.20;;;;;;;;;;7398427;19;20023;-79
2022/09/08 00:52:07;;;;;;;0.70;0.30;;;;;;;;;;7396868;19;20472;-79
2022/09/08 00:54:33;;;;;;;1.00;0.40;;;;;;;;;;7395752;19;19994;-78
2022/09/08 00:56:58;;;;;;;0.88;0.32;;;;;;;;;;7400204;19;20412;-80
2022/09/08 00:59:25;;;;;;;0.40;0.32;;;;;;;;;;7396654;19;20089;-79
2022/09/08 01:01:51;;;;;;;1.35;0.30;;;;;;;;;;7395889;19;20081;-79
2022/09/08 01:04:17;;;;;;;0.30;0.30;;;;;;;;;;7396438;19;20014;-79
2022/09/08 01:12:45;;;;;;;0.30;0.20;;;;;;;;;;7396601;19;20003;-79
2022/09/08 01:15:23;;;;;;;1.42;0.40;;;;;;;;;;7394690;19;20028;-79
2022/09/08 01:17:52;;;;;;;0.77;0.20;;;;;;;;;;7391034;19;20073;-80
2022/09/08 01:20:25;;;;;;;3.55;0.32;;;;;;;;;;7394239;19;20013;-80
2022/09/08 01:22:50;;;;;;;0.65;0.30;;;;;;;;;;7397396;19;20017;-82
2022/09/08 01:25:31;;;;;;;0.13;0.13;;;;;;;;;;7397067;19;20081;-79
2022/09/08 01:28:04;;;;;;;1.83;0.40;;;;;;;;;;7392267;19;19999;-79
2022/09/08 01:30:30;;;;;;;0.43;0.40;;;;;;;;;;7392748;19;20010;-79
2022/09/08 01:32:56;;;;;;;0.57;0.30;;;;;;;;;;7393900;19;20021;-78
2022/09/08 01:35:30;;;;;;;8.65;0.52;;;;;;;;;;7393754;19;20452;-80
2022/09/08 01:37:56;;;;;;;0.50;0.20;;;;;;;;;;7396154;19;20030;-79
2022/09/08 01:40:21;;;;;;;0.20;0.20;;;;;;;;;;7394152;19;20050;-78
2022/09/08 01:42:47;;;;;;;0.20;0.20;;;;;;;;;;7391067;19;20436;-78
2022/09/08 01:45:12;;;;;;;0.20;0.20;;;;;;;;;;7391713;19;20030;-79
2022/09/08 01:47:37;;;;;;;0.20;0.20;;;;;;;;;;7394352;19;20006;-79
2022/09/08 01:50:03;;;;;;;1.13;0.35;;;;;;;;;;7394666;19;20346;-78
2022/09/08 01:52:28;;;;;;;0.52;0.30;;;;;;;;;;7395296;19;20066;-78
2022/09/08 01:54:53;;;;;;;0.20;0.10;;;;;;;;;;7394276;19;20029;-79
2022/09/08 01:57:19;;;;;;;1.45;0.50;;;;;;;;;;7389092;19;20005;-77
2022/09/08 01:59:44;;;;;;;1.20;0.52;;;;;;;;;;7390698;19;20110;-77
2022/09/08 02:02:09;;;;;;;1.40;0.30;;;;;;;;;;7393666;19;20006;-79
2022/09/08 02:04:34;;;;;;;1.08;0.40;;;;;;;;;;7395244;19;20018;-77
2022/09/08 02:07:00;;;;;;;0.38;0.35;;;;;;;;;;7391652;19;19995;-76
2022/09/08 02:09:25;;;;;;;2.75;0.50;;;;;;;;;;7389315;19;20078;-78
2022/09/08 02:11:51;;;;;;;3.40;0.40;;;;;;;;;;7391200;19;20011;-77
2022/09/08 02:14:16;;;;;;;1.05;0.40;;;;;;;;;;7393766;19;20385;-78
2022/09/08 02:16:42;;;;;;;0.93;0.40;;;;;;;;;;7393657;19;20045;-80
2022/09/08 02:19:07;;;;;;;7.00;0.40;;;;;;;;;;7391490;19;20464;-80
2022/09/08 02:21:32;;;;;;;1.10;0.30;;;;;;;;;;7388559;19;20026;-78
2022/09/08 02:23:59;;;;;;;2.03;0.45;;;;;;;;;;7392048;19;20007;-82
2022/09/08 02:26:28;;;;;;;2.47;0.75;;;;;;;;;;7390135;19;20009;-78
2022/09/08 02:28:53;;;;;;;0.40;0.40;;;;;;;;;;7388364;19;19991;-79
2022/09/08 02:31:20;;;;;;;0.75;0.43;;;;;;;;;;7392686;19;20013;-79
2022/09/08 02:33:45;;;;;;;1.38;0.80;;;;;;;;;;7393436;19;20007;-78
2022/09/08 02:36:11;;;;;;;1.17;0.50;;;;;;;;;;7390033;19;20024;-79
2022/09/08 02:38:37;;;;;;;0.60;0.45;;;;;;;;;;7388140;19;19995;-80
2022/09/08 02:41:02;;;;;;;1.10;0.47;;;;;;;;;;7389291;19;20077;-79
2022/09/08 02:43:29;;;;;;;1.90;0.50;;;;;;;;;;7390769;19;20002;-79
2022/09/08 02:45:54;;;;;;;1.38;0.32;;;;;;;;;;7391557;19;20481;-78
2022/09/08 02:48:19;;;;;;;1.83;0.30;;;;;;;;;;7392370;19;20000;-78
2022/09/08 02:50:45;;;;;;;1.38;0.57;;;;;;;;;;7393975;19;20027;-79
2022/09/08 02:53:10;;;;;;;2.20;0.32;;;;;;;;;;7392302;19;20011;-75
2022/09/08 02:55:38;;;;;;;0.30;0.30;;;;;;;;;;7389506;19;19995;-78
2022/09/08 02:58:04;;;;;;;0.63;0.40;;;;;;;;;;7389346;19;20002;-78
2022/09/08 03:00:32;;;;;;;1.00;0.70;;;;;;;;;;7387382;19;20012;-79
2022/09/08 03:02:57;;;;;;;1.55;0.20;;;;;;;;;;7391910;19;20027;-78
2022/09/08 03:05:23;;;;;;;0.55;0.30;;;;;;;;;;7391919;19;20441;-80
2022/09/08 03:07:48;;;;;;;0.30;0.30;;;;;;;;;;7397972;19;20022;-78
2022/09/08 03:10:14;;;;;;;0.22;0.22;;;;;;;;;;7400837;19;20002;-79
2022/09/08 03:12:40;;;;;;;0.30;0.30;;;;;;;;;;7400364;19;20014;-79
2022/09/08 03:15:06;;;;;;;1.00;0.40;;;;;;;;;;7396058;19;20014;-79
2022/09/08 03:17:31;;;;;;;0.80;0.40;;;;;;;;;;7399160;19;20027;-79
2022/09/08 03:19:57;;;;;;;2.65;0.45;;;;;;;;;;7396819;19;20350;-75
2022/09/08 03:22:22;;;;;;;0.50;0.50;;;;;;;;;;7397123;19;20002;-78
2022/09/08 03:24:47;;;;;;;1.58;0.50;;;;;;;;;;7398502;19;20432;-77
2022/09/08 03:27:13;;;;;;;0.30;0.30;;;;;;;;;;7398729;19;20021;-78
2022/09/08 03:29:38;;;;;;;0.50;0.40;;;;;;;;;;7402220;19;20557;-78
2022/09/08 03:32:04;;;;;;;0.50;0.50;;;;;;;;;;7396965;19;20076;-78
2022/09/08 03:34:29;;;;;;;0.75;0.50;;;;;;;;;;7401415;19;20035;-78
2022/09/08 03:36:54;;;;;;;0.38;0.38;;;;;;;;;;7396511;19;20007;-78
2022/09/08 03:39:20;;;;;;;0.85;0.65;;;;;;;;;;7398462;19;20045;-79
2022/09/08 03:41:46;;;;;;;2.33;0.40;;;;;;;;;;7401998;19;20004;-79
2022/09/08 03:44:11;;;;;;;0.75;0.38;;;;;;;;;;7400057;19;20023;-79
2022/09/08 03:46:37;;;;;;;1.05;0.50;;;;;;;;;;7400768;19;20342;-79
2022/09/08 03:49:02;;;;;;;2.10;0.55;;;;;;;;;;7399487;19;20329;-79
2022/09/08 03:51:28;;;;;;;0.82;0.50;;;;;;;;;;7398998;19;20052;-77
2022/09/08 03:54:46;;;;;;;0.90;0.70;;;;;;;;;;7398455;19;20433;-79
2022/09/08 03:56:41;;;;;;;1.98;0.50;;;;;;;;;;7400089;19;20082;-79
2022/09/08 03:59:06;;;;;;;0.60;0.60;;;;;;;;;;7396995;19;20007;-79
2022/09/08 04:01:31;;;;;;;0.50;0.50;;;;;;;;;;7400607;19;20019;-79
2022/09/08 04:03:56;;;;;;;0.50;0.43;;;;;;;;;;7403154;19;20352;-79
2022/09/08 04:06:22;;;;;;;2.80;0.75;;;;;;;;;;7403378;19;20011;-79
2022/09/08 04:08:47;;;;;;;1.98;0.65;;;;;;;;;;7401888;19;19995;-79
2022/09/08 04:11:12;;;;;;;1.15;0.70;;;;;;;;;;7405621;19;20432;-80
2022/09/08 04:13:38;;;;;;;3.50;0.50;;;;;;;;;;7402026;19;20033;-79
2022/09/08 04:16:04;;;;;;;1.67;0.43;;;;;;;;;;7405208;19;20416;-79
2022/09/08 04:18:29;;;;;;;3.38;0.60;;;;;;;;;;7403033;19;20023;-80
2022/09/08 04:20:59;;;;;;;1.88;0.73;;;;;;;;;;7406652;19;20010;-79
2022/09/08 04:23:25;;;;;;;1.45;0.40;;;;;;;;;;7406002;19;20103;-79
2022/09/08 04:25:58;;;;;;;0.95;0.60;;;;;;;;;;7408185;19;20396;-79
2022/09/08 04:28:24;;;;;;;1.67;0.50;;;;;;;;;;7406113;19;20003;-79
2022/09/08 04:30:50;;;;;;;2.40;0.70;;;;;;;;;;7406923;19;20031;-79
2022/09/08 04:33:15;;;;;;;0.98;0.70;;;;;;;;;;7409173;19;20060;-79
2022/09/08 04:35:40;;;;;;;0.70;0.57;;;;;;;;;;7408523;19;20002;-81
2022/09/08 04:38:06;;;;;;;1.40;0.68;;;;;;;;;;7402572;19;20027;-79
2022/09/08 04:40:33;;;;;;;0.63;0.63;;;;;;;;;;7409217;19;20007;-78
2022/09/08 04:42:58;;;;;;;1.10;0.73;;;;;;;;;;7406392;19;20058;-79
2022/09/08 04:45:23;;;;;;;1.08;0.60;;;;;;;;;;7407983;19;20006;-78
2022/09/08 04:47:49;;;;;;;0.57;0.57;;;;;;;;;;7402092;19;20007;-79
2022/09/08 04:50:14;;;;;;;0.98;0.43;;;;;;;;;;7407989;19;20449;-78
2022/09/08 04:52:39;;;;;;;1.05;0.70;;;;;;;;;;7395882;19;20010;-76
2022/09/08 04:55:05;;;;;;;1.05;0.88;;;;;;;;;;7394988;19;20016;-78
2022/09/08 04:57:30;;;;;;;1.23;0.50;;;;;;;;;;7397023;19;20013;-78
2022/09/08 04:59:56;;;;;;;1.52;0.60;;;;;;;;;;7393097;19;20013;-77
2022/09/08 05:02:21;;;;;;;0.75;0.47;;;;;;;;;;7393538;19;20014;-78
2022/09/08 05:04:46;;;;;;;0.75;0.57;;;;;;;;;;7393507;19;20047;-77
2022/09/08 05:07:12;;;;;;;1.75;0.63;;;;;;;;;;7391128;19;20023;-78
2022/09/08 05:09:37;;;;;;;1.25;0.52;;;;;;;;;;7395811;19;20652;-78
2022/09/08 05:12:02;;;;;;;2.83;0.50;;;;;;;;;;7398636;19;20006;-78
2022/09/08 05:14:28;;;;;;;0.40;0.40;;;;;;;;;;7400182;19;20118;-78
2022/09/08 05:16:53;;;;;;;0.70;0.57;;;;;;;;;;7400346;19;20017;-78
2022/09/08 05:19:18;;;;;;;7.93;0.50;;;;;;;;;;7398094;19;20011;-79
2022/09/08 05:21:44;;;;;;;0.38;0.25;;;;;;;;;;7394050;19;20007;-75
2022/09/08 05:24:09;;;;;;;0.43;0.40;;;;;;;;;;7392037;19;20340;-78
2022/09/08 05:26:35;;;;;;;0.30;0.30;;;;;;;;;;7392289;19;20091;-75
2022/09/08 05:29:02;;;;;;;0.77;0.45;;;;;;;;;;7390075;19;20021;-76
2022/09/08 05:31:29;;;;;;;1.27;0.68;;;;;;;;;;7392628;19;20138;-75
2022/09/08 05:33:56;;;;;;;1.63;0.50;;;;;;;;;;7394778;19;20048;-77
2022/09/08 05:36:25;;;;;;;1.35;0.32;;;;;;;;;;7393684;19;20015;-77
2022/09/08 05:38:51;;;;;;;0.30;0.30;;;;;;;;;;7390714;19;20006;-77
2022/09/08 05:41:17;;;;;;;0.40;0.20;;;;;;;;;;7387761;19;20032;-75
2022/09/08 05:43:42;;;;;;;1.08;0.57;;;;;;;;;;7390907;19;20015;-77
2022/09/08 05:46:09;;;;;;;1.45;0.45;;;;;;;;;;7394303;19;20037;-77
2022/09/08 05:48:34;;;;;;;0.90;0.30;;;;;;;;;;7395737;19;20003;-77
2022/09/08 05:51:00;;;;;;;1.00;0.38;;;;;;;;;;7397874;19;20067;-78
2022/09/08 05:53:27;;;;;;;0.75;0.13;;;;;;;;;;7393787;19;20010;-77
2022/09/08 05:55:58;;;;;;;0.22;0.22;;;;;;;;;;7391830;19;20030;-76
2022/09/08 05:58:24;;;;;;;2.15;0.40;;;;;;;;;;7391687;19;20019;-75
2022/09/08 06:00:54;;;;;;;0.88;0.30;;;;;;;;;;7391532;19;20010;-77
2022/09/08 06:03:20;;;;;;;0.43;0.20;;;;;;;;;;7392054;19;20009;-75
2022/09/08 06:05:45;;;;;;;0.98;0.20;;;;;;;;;;7391049;19;20997;-76
2022/09/08 06:08:10;;;;;;;3.05;0.38;;;;;;;;;;7392533;19;20857;-77
2022/09/08 06:10:37;;;;;;;0.30;0.30;;;;;;;;;;7394488;19;20010;-76
2022/09/08 06:13:03;;;;;;;0.55;0.30;;;;;;;;;;7390541;19;19987;-78
2022/09/08 06:15:29;;;;;;;0.55;0.20;;;;;;;;;;7393534;19;20018;-76
2022/09/08 06:17:54;;;;;;;0.82;0.40;;;;;;;;;;7390872;19;20011;-77
2022/09/08 06:20:20;;;;;;;1.38;0.43;;;;;;;;;;7392544;19;20323;-76
2022/09/08 06:22:45;;;;;;;0.40;0.30;;;;;;;;;;7389130;19;20195;-77
2022/09/08 06:25:10;;;;;;;0.57;0.43;;;;;;;;;;7390734;19;20015;-77
2022/09/08 06:28:27;;;;;;;4.18;0.55;;;;;;;;;;7390271;19;20421;-77
2022/09/08 06:30:54;;;;;;;0.25;0.20;;;;;;;;;;7391179;19;20019;-76
2022/09/08 06:33:29;;;;;;;0.20;0.20;;;;;;;;;;7390483;19;20031;-79
2022/09/08 06:36:07;;;;;;;;;;;;;;;;;;7396738;19;20366;-77
2022/09/08 06:38:40;;;;;;;1.65;0.20;;;;;;;;;;7389102;19;19937;-77
2022/09/08 06:41:13;;;;;;;0.10;0.10;;;;;;;;;;7391533;19;20002;-80
2022/09/08 06:43:52;;;;;;;0.20;0.20;;;;;;;;;;7403834;19;20052;-77
2022/09/08 06:46:28;;;;;;;0.32;0.20;;;;;;;;;;7400587;19;20010;-77
2022/09/08 06:48:53;;;;;;;;;;;;;;;;;;7401887;19;20106;-77
2022/09/08 06:51:42;;;;;;;0.40;0.20;;;;;;;;;;7399759;19;19919;-79
2022/09/08 06:54:18;;;;;;;1.20;0.45;;;;;;;;;;7401443;19;20002;-77
2022/09/08 06:57:02;;;;;;;0.20;0.20;;;;;;;;;;7405453;19;20003;-77
2022/09/08 06:59:37;;;;;;;0.28;0.20;;;;;;;;;;7397011;19;20002;-77
2022/09/08 07:02:33;;;;;;;0.20;0.20;;;;;;;;;;7401927;19;20014;-78
2022/09/08 07:05:10;;;;;;;2.00;0.10;;;;;;;;;;7400289;19;20014;-76
2022/09/08 07:08:00;;;;;;;0.20;0.20;;;;;;;;;;7401546;19;20010;-77
2022/09/08 07:10:41;;;;;;;0.20;0.20;;;;;;;;;;7399623;19;20030;-77
2022/09/08 07:13:25;;;;;;;0.20;0.20;;;;;;;;;;7402769;19;20007;-78
2022/09/08 07:16:03;;;;;;;0.40;0.20;;;;;;;;;;7406586;19;20009;-79
2022/09/08 07:18:37;;;;;;;0.75;0.10;;;;;;;;;;7400087;19;20006;-79
2022/09/08 07:21:20;;;;;;;0.20;0.20;;;;;;;;;;7404462;19;20010;-79
2022/09/08 07:23:49;;;;;;;1.75;0.50;;;;;;;;;;7403502;19;20006;-78
2022/09/08 07:26:37;;;;;;;0.55;0.10;;;;;;;;;;7398543;19;20010;-77
2022/09/08 07:29:07;;;;;;;4.22;0.20;;;;;;;;;;7404910;19;20029;-79
2022/09/08 07:31:38;;;;;;;0.60;0.30;;;;;;;;;;7401372;19;20002;-78
2022/09/08 07:34:10;;;;;;;7.70;1.00;;;;;;;;;;7405170;19;20099;-78
2022/09/08 07:36:47;;;;;;;1.10;0.32;;;;;;;;;;7412036;19;20006;-80
2022/09/08 07:39:30;;;;;;;0.73;0.20;;;;;;;;;;7399168;19;20421;-79
2022/09/08 07:41:58;;;;;;;1.67;0.30;;;;;;;;;;7401324;19;20014;-79
2022/09/08 07:44:25;;;;;;;0.45;0.10;;;;;;;;;;7403044;19;20025;-78
2022/09/08 07:47:28;;;;;;;0.57;0.20;;;;;;;;;;7402114;19;20010;-78
2022/09/08 07:50:15;;;;;;;2.25;0.40;;;;;;;;;;7404707;19;20011;-79
2022/09/08 07:53:13;;;;;;;0.32;0.20;;;;;;;;;;7401186;19;20013;-78
2022/09/08 07:55:43;;;;;;;1.88;0.13;;;;;;;;;;7395013;19;20013;-78
2022/09/08 07:58:27;;;;;;;1.27;0.68;;;;;;;;;;7403446;19;20025;-77
2022/09/08 08:01:01;;;;;;;0.30;0.20;;;;;;;;;;7401885;19;19999;-75
2022/09/08 08:03:29;;;;;;;2.10;0.20;;;;;;;;;;7400015;19;20014;-77
2022/09/08 08:06:19;;;;;;;0.20;0.20;;;;;;;;;;7395120;19;20011;-77
2022/09/08 08:09:14;;;;;;;0.20;0.20;;;;;;;;;;7400829;19;20491;-77
2022/09/08 08:11:48;;;;;;;0.17;0.17;;;;;;;;;;7400714;19;20010;-77
2022/09/08 08:14:32;;;;;;;0.20;0.20;;;;;;;;;;7402508;19;20098;-77
2022/09/08 08:17:09;;;;;;;0.10;0.10;;;;;;;;;;7403137;19;20075;-77
2022/09/08 08:19:52;;;;;;;0.32;0.22;;;;;;;;;;7399841;19;20006;-77
2022/09/08 08:22:42;;;;;;;0.10;0.10;;;;;;;;;;7400500;19;20023;-77
2022/09/08 08:25:22;;;;;;;0.20;0.20;;;;;;;;;;7400560;19;20021;-76
2022/09/08 08:28:06;;;;;;;1.60;0.20;;;;;;;;;;7399372;19;20002;-77
2022/09/08 08:30:37;;;;;;;0.20;0.20;;;;;;;;;;7402501;19;20401;-76
2022/09/08 08:33:07;;;;;;;0.68;0.20;;;;;;;;;;7398445;19;20850;-77
2022/09/08 08:35:43;;;;;;;0.10;0.10;;;;;;;;;;7400137;19;20041;-76
2022/09/08 08:38:17;;;;;;;1.15;0.10;;;;;;;;;;7398080;19;20007;-79
2022/09/08 08:40:56;;;;;;;1.20;0.43;;;;;;;;;;7395970;19;20017;-77
2022/09/08 08:43:50;;;;;;;0.28;0.20;;;;;;;;;;7398879;19;20017;-76
2022/09/08 08:46:25;;;;;;;1.50;0.65;;;;;;;;;;7396593;19;20010;-77
2022/09/08 08:49:09;;;;;;;0.40;0.30;;;;;;;;;;7398581;19;20010;-77
2022/09/08 08:51:54;;;;;;;0.82;0.52;;;;;;;;;;7397883;19;20259;-77
2022/09/08 08:55:00;;;;;;;0.85;0.30;;;;;;;;;;7398678;19;20019;-75
2022/09/08 08:57:52;;;;;;;0.65;0.20;;;;;;;;;;7398909;19;20025;-77
2022/09/08 09:00:23;;;;;;;0.22;0.15;;;;;;;;;;7395285;19;20003;-77
2022/09/08 09:03:01;;;;;;;0.55;0.20;;;;;;;;;;7398874;19;20003;-77
2022/09/08 09:05:30;;;;;;;0.30;0.30;;;;;;;;;;7393631;19;20535;-76
2022/09/08 09:08:24;;;;;;;0.63;0.20;;;;;;;;;;7389267;19;20050;-76
2022/09/08 09:10:58;;;;;;;2.50;0.20;;;;;;;;;;7390949;19;20351;-76
2022/09/08 09:13:39;;;;;;;0.43;0.30;;;;;;;;;;7387938;19;20033;-76
2022/09/08 09:16:46;;;;;;;0.80;0.30;;;;;;;;;;7390270;19;20040;-76
2022/09/08 09:19:30;;;;;;;0.43;0.25;;;;;;;;;;7388539;19;20006;-77
2022/09/08 09:22:13;;;;;;;0.60;0.28;;;;;;;;;;7390798;19;20014;-77
2022/09/08 09:25:09;;;;;;;0.10;0.10;;;;;;;;;;7389394;19;20014;-77
2022/09/08 09:28:19;;;;;;;0.75;0.30;;;;;;;;;;7391752;19;20022;-77
2022/09/08 09:31:03;;;;;;;0.45;0.25;;;;;;;;;;7393757;19;20028;-77
2022/09/08 09:33:34;;;;;;;0.45;0.20;;;;;;;;;;7392026;19;20006;-77
2022/09/08 09:36:26;;;;;;;0.40;0.20;;;;;;;;;;7389292;19;20014;-77
2022/09/08 09:39:14;;;;;;;0.20;0.20;;;;;;;;;;7390265;19;20018;-78
2022/09/08 09:41:51;;;;;;;0.20;0.20;;;;;;;;;;7390989;19;20341;-77
2022/09/08 09:44:39;;;;;;;0.75;0.20;;;;;;;;;;7391627;19;20014;-78
2022/09/08 09:47:35;;;;;;;0.60;0.13;;;;;;;;;;7392456;19;20294;-77
2022/09/08 09:50:19;;;;;;;0.88;0.30;;;;;;;;;;7393087;19;20065;-77
2022/09/08 09:52:58;;;;;;;0.20;0.10;;;;;;;;;;7391532;19;20010;-77
2022/09/08 09:56:01;;;;;;;0.20;0.20;;;;;;;;;;7391573;19;20037;-76
2022/09/08 09:58:54;;;;;;;0.20;0.20;;;;;;;;;;7386861;19;20006;-77
2022/09/08 10:01:38;;;;;;;0.20;0.15;;;;;;;;;;7386005;19;20018;-77
2022/09/08 10:04:50;;;;;;;0.32;0.20;;;;;;;;;;7386405;19;20006;-77
2022/09/08 10:07:29;;;;;;;0.28;0.28;;;;;;;;;;7389489;19;20053;-76
2022/09/08 10:10:16;;;;;;;0.30;0.30;;;;;;;;;;7393960;19;19995;-76
2022/09/08 10:13:28;;;;;;;0.13;0.13;;;;;;;;;;7389142;19;19998;-76
2022/09/08 10:16:11;;;;;;;1.08;0.30;;;;;;;;;;7389472;19;20303;-76
2022/09/08 10:18:56;;;;;;;0.93;0.22;;;;;;;;;;7388648;19;20308;-76
2022/09/08 10:21:53;;;;;;;0.55;0.35;;;;;;;;;;7387618;19;20010;-76
2022/09/08 10:24:56;;;;;;;0.30;0.20;;;;;;;;;;7384655;19;20007;-76
2022/09/08 10:27:43;;;;;;;0.65;0.22;;;;;;;;;;7389917;19;20014;-76
2022/09/08 10:30:26;;;;;;;0.28;0.28;;;;;;;;;;7390108;19;20497;-76
2022/09/08 10:33:29;;;;;;;0.10;0.10;;;;;;;;;;7388823;19;20010;-76
2022/09/08 10:36:08;;;;;;;0.15;0.15;;;;;;;;;;7389848;19;20035;-76
2022/09/08 10:38:55;;;;;;;0.30;0.10;;;;;;;;;;7387297;19;20393;-77
2022/09/08 10:41:48;;;;;;;0.55;0.25;;;;;;;;;;7381180;19;20017;-76
2022/09/08 10:44:30;;;;;;;1.13;0.20;;;;;;;;;;7391357;19;20003;-76
2022/09/08 10:47:01;;;;;;;2.15;0.35;;;;;;;;;;7390848;19;20003;-76
2022/09/08 10:49:43;;;;;;;5.63;0.43;;;;;;;;;;7386376;19;20520;-76
2022/09/08 10:52:30;;;;;;;1.02;0.22;;;;;;;;;;7388351;19;20039;-76
2022/09/08 10:55:27;;;;;;;0.52;0.20;;;;;;;;;;7390416;19;20019;-75
2022/09/08 10:58:24;;;;;;;0.90;0.40;;;;;;;;;;7388915;19;20014;-77
2022/09/08 11:01:37;;;;;;;0.60;0.30;;;;;;;;;;7385052;19;20010;-76
2022/09/08 11:04:02;;;;;;;0.75;0.20;;;;;;;;;;7389405;19;19991;-76
2022/09/08 11:06:52;;;;;;;1.15;0.60;;;;;;;;;;7388686;19;20070;-77
2022/09/08 11:09:41;;;;;;;0.43;0.20;;;;;;;;;;7386848;19;20037;-76
2022/09/08 11:12:38;;;;;;;0.75;0.28;;;;;;;;;;7388470;19;20045;-76
2022/09/08 11:15:31;;;;;;;0.47;0.20;;;;;;;;;;7386876;19;20018;-76
2022/09/08 11:18:24;;;;;;;0.40;0.25;;;;;;;;;;7387236;19;20327;-75
2022/09/08 11:20:52;;;;;;;0.10;0.10;;;;;;;;;;7390259;19;20029;-76
2022/09/08 11:23:59;;;;;;;1.60;0.50;;;;;;;;;;7388739;19;20006;-76
2022/09/08 11:26:57;;;;;;;1.48;0.32;;;;;;;;;;7383185;19;20468;-75
2022/09/08 11:29:33;;;;;;;2.35;0.60;;;;;;;;;;7395717;19;20012;-75
2022/09/08 11:32:18;;;;;;;0.50;0.50;;;;;;;;;;7397071;19;20002;-76
2022/09/08 11:34:51;;;;;;;0.20;0.20;;;;;;;;;;7398137;19;20024;-76
2022/09/08 11:37:23;;;;;;;0.50;0.40;;;;;;;;;;7397469;19;20002;-75
2022/09/08 11:40:07;;;;;;;1.05;0.60;;;;;;;;;;7393371;19;20011;-76
2022/09/08 11:43:03;;;;;;;1.13;0.40;;;;;;;;;;7396740;19;20491;-76
2022/09/08 11:45:34;;;;;;;0.35;0.35;;;;;;;;;;7395670;19;20018;-76
2022/09/08 11:48:18;;;;;;;1.88;0.50;;;;;;;;;;7394385;19;20007;-76
2022/09/08 11:50:49;;;;;;;0.38;0.30;;;;;;;;;;7394472;19;20038;-76
2022/09/08 11:53:22;;;;;;;0.50;0.40;;;;;;;;;;7395867;19;20013;-76
2022/09/08 11:56:00;;;;;;;0.93;0.50;;;;;;;;;;7396410;19;20009;-77
2022/09/08 11:58:40;;;;;;;0.82;0.40;;;;;;;;;;7396789;19;20210;-76
2022/09/08 12:01:12;;;;;;;0.43;0.22;;;;;;;;;;7399971;19;20014;-77
2022/09/08 12:03:50;;;;;;;0.40;0.30;;;;;;;;;;7395657;19;20003;-76
2022/09/08 12:06:42;;;;;;;0.60;0.40;;;;;;;;;;7394959;19;20081;-77
2022/09/08 12:09:15;;;;;;;1.05;0.38;;;;;;;;;;7395450;19;20011;-77
2022/09/08 12:11:59;;;;;;;0.30;0.30;;;;;;;;;;7397847;19;20010;-76
2022/09/08 12:14:55;;;;;;;0.80;0.35;;;;;;;;;;7398991;19;20007;-76
2022/09/08 12:17:55;;;;;;;0.55;0.22;;;;;;;;;;7397015;19;19998;-76
2022/09/08 12:20:45;;;;;;;1.38;0.55;;;;;;;;;;7397920;19;20016;-76
2022/09/08 12:23:35;;;;;;;0.75;0.40;;;;;;;;;;7396903;19;20039;-76
2022/09/08 12:26:19;;;;;;;1.08;0.50;;;;;;;;;;7395568;19;20003;-76
2022/09/08 12:29:16;;;;;;;0.75;0.32;;;;;;;;;;7398740;19;20014;-76
2022/09/08 12:31:47;;;;;;;0.30;0.30;;;;;;;;;;7396757;19;20002;-76
2022/09/08 12:34:31;;;;;;;0.50;0.47;;;;;;;;;;7399463;19;20496;-76
2022/09/08 12:37:12;;;;;;;1.90;0.35;;;;;;;;;;7400622;19;20043;-77
2022/09/08 12:40:09;;;;;;;0.65;0.40;;;;;;;;;;7391510;19;20503;-77
2022/09/08 12:42:50;;;;;;;0.75;0.38;;;;;;;;;;7393711;19;20125;-76
2022/09/08 12:45:33;;;;;;;0.55;0.30;;;;;;;;;;7399571;19;19998;-77
2022/09/08 12:48:07;;;;;;;0.75;0.30;;;;;;;;;;7395591;19;20010;-77
2022/09/08 12:51:05;;;;;;;0.45;0.30;;;;;;;;;;7394558;19;20019;-76
2022/09/08 12:53:54;;;;;;;0.47;0.40;;;;;;;;;;7399494;19;20021;-76
2022/09/08 12:56:36;;;;;;;1.13;0.43;;;;;;;;;;7398540;19;20030;-77
2022/09/08 12:59:42;;;;;;;0.98;0.38;;;;;;;;;;7393814;19;20009;-76
2022/09/08 13:02:22;;;;;;;1.10;0.30;;;;;;;;;;7398656;19;20006;-76
2022/09/08 13:05:06;;;;;;;2.45;0.43;;;;;;;;;;7397678;19;20014;-77
2022/09/08 13:07:49;;;;;;;0.73;0.40;;;;;;;;;;7396748;19;20082;-76
2022/09/08 13:10:32;;;;;;;0.32;0.22;;;;;;;;;;7397237;19;20354;-77
2022/09/08 13:13:30;;;;;;;2.17;0.40;;;;;;;;;;7391403;19;20074;-76
2022/09/08 13:16:24;;;;;;;0.60;0.40;;;;;;;;;;7398792;19;20078;-76
2022/09/08 13:19:03;;;;;;;0.40;0.40;;;;;;;;;;7393328;19;20006;-76
2022/09/08 13:21:33;;;;;;;1.17;0.50;;;;;;;;;;7394230;19;20011;-75
2022/09/08 13:24:04;;;;;;;2.53;0.47;;;;;;;;;;7396057;19;20014;-76
2022/09/08 13:27:00;;;;;;;0.38;0.30;;;;;;;;;;7397527;19;20025;-77
2022/09/08 13:29:52;;;;;;;2.03;0.50;;;;;;;;;;7393497;19;20476;-77
2022/09/08 13:32:36;;;;;;;0.40;0.30;;;;;;;;;;7394319;19;20013;-76
2022/09/08 13:35:24;;;;;;;0.35;0.30;;;;;;;;;;7397683;19;20531;-77
2022/09/08 13:38:28;;;;;;;0.95;0.40;;;;;;;;;;7393484;19;20467;-77
2022/09/08 13:41:44;;;;;;;0.50;0.20;;;;;;;;;;7396471;19;20014;-76
2022/09/08 13:44:34;;;;;;;0.13;0.13;;;;;;;;;;7392343;19;20101;-77
2022/09/08 13:47:36;;;;;;;0.30;0.15;;;;;;;;;;7394829;19;20344;-77
2022/09/08 13:50:19;;;;;;;2.05;0.30;;;;;;;;;;7396009;19;20007;-77
2022/09/08 13:52:54;;;;;;;2.13;0.30;;;;;;;;;;7392894;19;20047;-76
2022/09/08 13:55:42;;;;;;;0.35;0.10;;;;;;;;;;7390405;19;20125;-78
2022/09/08 13:58:16;;;;;;;0.38;0.25;;;;;;;;;;7393458;19;20014;-77
2022/09/08 14:01:30;;;;;;;0.50;0.30;;;;;;;;;;7391593;19;20006;-77
2022/09/08 14:04:04;;;;;;;0.30;0.30;;;;;;;;;;7395812;19;20476;-76
2022/09/08 14:06:43;;;;;;;1.13;0.30;;;;;;;;;;7389741;19;20089;-77
2022/09/08 14:09:23;;;;;;;0.25;0.25;;;;;;;;;;7393323;19;21108;-77
2022/09/08 14:12:17;;;;;;;0.57;0.20;;;;;;;;;;7396540;19;20032;-77
2022/09/08 14:15:14;;;;;;;0.20;0.20;;;;;;;;;;7393896;19;20002;-77
2022/09/08 14:17:58;;;;;;;0.50;0.30;;;;;;;;;;7393957;19;20022;-76
2022/09/08 14:20:30;;;;;;;0.60;0.30;;;;;;;;;;7391744;19;20086;-77
2022/09/08 14:23:16;;;;;;;0.10;0.10;;;;;;;;;;7394678;19;20114;-77
2022/09/08 14:25:41;;;;;;;0.57;0.35;;;;;;;;;;7397404;19;20002;-77
2022/09/08 14:28:08;;;;;;;1.27;0.30;;;;;;;;;;7390460;19;20003;-77
2022/09/08 14:31:01;;;;;;;0.40;0.20;;;;;;;;;;7394643;19;20038;-77
2022/09/08 14:34:00;;;;;;;0.32;0.22;;;;;;;;;;7396104;19;20019;-78
2022/09/08 14:36:47;;;;;;;2.25;0.32;;;;;;;;;;7395473;19;20006;-77
2022/09/08 14:39:26;;;;;;;2.55;0.47;;;;;;;;;;7392132;19;20035;-77
2022/09/08 14:41:57;;;;;;;0.45;0.30;;;;;;;;;;7395848;19;20032;-76
2022/09/08 14:44:26;;;;;;;0.30;0.20;;;;;;;;;;7395431;19;20010;-77
2022/09/08 14:46:52;;;;;;;0.40;0.20;;;;;;;;;;7393614;19;20017;-78
2022/09/08 14:49:44;;;;;;;1.20;0.30;;;;;;;;;;7392421;19;20045;-77
2022/09/08 14:52:40;;;;;;;0.88;0.22;;;;;;;;;;7395002;19;20002;-77
2022/09/08 14:55:15;;;;;;;0.22;0.20;;;;;;;;;;7396418;19;20022;-77
2022/09/08 14:57:45;;;;;;;0.77;0.30;;;;;;;;;;7392729;19;20037;-77
2022/09/08 15:00:16;;;;;;;0.30;0.30;;;;;;;;;;7389461;19;20070;-77
2022/09/08 15:03:08;;;;;;;0.47;0.30;;;;;;;;;;7388541;19;20014;-77
2022/09/08 15:05:33;;;;;;;0.30;0.30;;;;;;;;;;7397196;19;20007;-77
2022/09/08 15:08:16;;;;;;;0.28;0.28;;;;;;;;;;7397420;19;20010;-79
2022/09/08 15:10:58;;;;;;;0.43;0.30;;;;;;;;;;7401094;19;20309;-78
2022/09/08 15:13:32;;;;;;;0.73;0.30;;;;;;;;;;7403754;19;20017;-78
2022/09/08 15:16:16;;;;;;;0.73;0.30;;;;;;;;;;7400506;19;20051;-79
2022/09/08 15:19:04;;;;;;;0.93;0.32;;;;;;;;;;7401610;19;20011;-79
2022/09/08 15:21:49;;;;;;;0.65;0.20;;;;;;;;;;7401932;19;20039;-78
2022/09/08 15:24:51;;;;;;;1.40;0.30;;;;;;;;;;7399810;19;20468;-79
2022/09/08 15:27:24;;;;;;;0.45;0.45;;;;;;;;;;7402946;19;20074;-80
2022/09/08 15:29:56;;;;;;;4.28;0.45;;;;;;;;;;7397394;19;20024;-78
2022/09/08 15:32:53;;;;;;;0.95;0.45;;;;;;;;;;7398971;19;20123;-79
2022/09/08 15:35:42;;;;;;;1.65;0.57;;;;;;;;;;7400533;19;20112;-79
2022/09/08 15:38:28;;;;;;;0.60;0.30;;;;;;;;;;7399380;19;20210;-79
2022/09/08 15:41:23;;;;;;;0.50;0.22;;;;;;;;;;7400233;19;20027;-80
2022/09/08 15:44:11;;;;;;;1.23;0.40;;;;;;;;;;7401643;19;20005;-79